createdAt,value
2019-05-16T00:02:01.169Z,1.10
2019-05-16T00:06:59.200Z,0.90
2019-05-16T00:12:04.735Z,0.93
2019-05-16T00:17:09.022Z,1.00
2019-05-16T00:22:13.136Z,1.07
2019-05-16T00:27:18.595Z,0.90
2019-05-16T00:32:22.819Z,0.90
2019-05-16T00:37:30.237Z,1.10
2019-05-16T00:42:35.719Z,0.97
2019-05-16T00:47:39.895Z,0.80
2019-05-16T00:52:44.080Z,1.00
2019-05-16T00:57:49.816Z,0.80
2019-05-16T01:02:53.926Z,1.07
2019-05-16T01:07:58.451Z,1.00
2019-05-16T01:13:02.831Z,0.87
2019-05-16T01:18:08.066Z,0.97
2019-05-16T01:23:13.951Z,0.90
2019-05-16T01:28:21.866Z,0.93
2019-05-16T01:33:28.155Z,0.80
2019-05-16T01:38:32.464Z,1.00
2019-05-16T01:43:37.866Z,0.80
2019-05-16T01:48:42.196Z,1.00
2019-05-16T01:53:51.601Z,1.00
2019-05-16T01:58:52.346Z,1.00
2019-05-16T02:03:58.684Z,1.00
2019-05-16T02:09:04.430Z,1.10
2019-05-16T02:14:09.544Z,1.20
2019-05-16T02:19:14.257Z,1.00
2019-05-16T02:24:19.979Z,1.40
2019-05-16T02:29:24.104Z,0.90
2019-05-16T02:34:30.801Z,1.10
2019-05-16T02:39:40.739Z,0.97
2019-05-16T02:44:45.920Z,1.07
2019-05-16T02:49:54.302Z,1.03
2019-05-16T02:55:00.923Z,0.83
2019-05-16T03:00:07.480Z,0.80
2019-05-16T03:05:12.992Z,1.17
2019-05-16T03:10:20.137Z,1.03
2019-05-16T03:15:23.197Z,1.13
2019-05-16T03:20:28.008Z,0.90
2019-05-16T03:25:33.040Z,1.10
2019-05-16T03:30:43.817Z,1.20
2019-05-16T03:35:45.227Z,1.00
2019-05-16T03:40:50.995Z,1.23
2019-05-16T03:45:56.569Z,0.90
2019-05-16T03:51:01.725Z,1.10
2019-05-16T03:56:05.844Z,0.90
2019-05-16T04:01:11.131Z,1.00
2019-05-16T04:06:15.775Z,0.93
2019-05-16T04:11:23.244Z,0.90
2019-05-16T04:16:26.003Z,1.00
2019-05-16T04:21:32.263Z,0.80
2019-05-16T04:26:36.599Z,1.20
2019-05-16T04:31:41.500Z,1.10
2019-05-16T04:36:46.197Z,0.97
2019-05-16T04:41:50.863Z,1.10
2019-05-16T04:46:55.729Z,1.30
2019-05-16T04:52:00.629Z,1.20
2019-05-16T04:57:05.392Z,1.20
2019-05-16T05:02:12.285Z,1.17
2019-05-16T05:07:15.377Z,1.30
2019-05-16T05:12:20.790Z,1.10
2019-05-16T05:17:25.429Z,1.40
2019-05-16T05:22:31.009Z,1.50
2019-05-16T05:27:35.095Z,1.80
2019-05-16T05:32:41.280Z,1.40
2019-05-16T05:37:46.053Z,1.23
2019-05-16T05:42:50.595Z,1.10
2019-05-16T05:47:55.614Z,1.20
2019-05-16T05:53:01.462Z,1.20
2019-05-16T05:58:06.377Z,1.13
2019-05-16T06:03:10.795Z,0.93
2019-05-16T06:08:20.092Z,0.80
2019-05-16T06:13:24.569Z,0.83
2019-05-16T06:18:30.880Z,0.70
2019-05-16T06:23:36.905Z,0.70
2019-05-16T06:28:41.534Z,0.73
2019-05-16T06:33:50.013Z,0.87
2019-05-16T06:38:54.825Z,0.80
2019-05-16T06:44:00.369Z,0.90
2019-05-16T06:49:04.552Z,0.80
2019-05-16T06:54:11.744Z,0.90
2019-05-16T06:59:15.865Z,0.90
2019-05-16T07:04:23.080Z,0.93
2019-05-16T07:09:27.171Z,1.00
2019-05-16T07:14:31.565Z,0.90
2019-05-16T07:19:35.795Z,0.83
2019-05-16T07:24:40.058Z,0.90
2019-05-16T07:29:44.505Z,0.90
2019-05-16T07:34:49.855Z,0.93
2019-05-16T07:39:56.451Z,0.83
2019-05-16T07:45:00.834Z,1.00
2019-05-16T07:50:05.271Z,0.90
2019-05-16T07:55:10.797Z,0.90
2019-05-16T08:00:15.369Z,0.80
2019-05-16T08:05:21.030Z,0.93
2019-05-16T08:10:38.127Z,0.90
2019-05-16T08:15:31.460Z,1.00
2019-05-16T08:20:36.586Z,0.77
2019-05-16T08:25:41.369Z,1.00
2019-05-16T08:30:45.633Z,1.00
2019-05-16T08:35:51.585Z,1.07
2019-05-16T08:41:07.942Z,1.17
2019-05-16T08:46:03.215Z,1.07
2019-05-16T08:51:07.321Z,1.00
2019-05-16T08:56:13.321Z,0.90
2019-05-16T09:01:21.487Z,0.90
2019-05-16T09:06:25.457Z,1.13
2019-05-16T09:11:40.653Z,1.00
2019-05-16T09:16:37.154Z,0.90
2019-05-16T09:21:41.518Z,1.47
2019-05-16T09:26:47.417Z,0.80
2019-05-16T09:32:08.069Z,1.10
2019-05-16T09:37:01.174Z,0.90
2019-05-16T09:42:04.581Z,1.03
2019-05-16T09:47:17.346Z,0.77
2019-05-16T09:52:22.200Z,0.90
2019-05-16T09:57:27.929Z,1.30
2019-05-16T10:02:32.695Z,1.00
2019-05-16T10:07:39.112Z,1.00
2019-05-16T10:12:44.435Z,1.20
2019-05-16T10:17:48.535Z,1.10
2019-05-16T10:22:52.881Z,1.07
2019-05-16T10:27:58.600Z,1.00
2019-05-16T10:33:02.751Z,1.10
2019-05-16T10:38:07.085Z,1.13
2019-05-16T10:43:12.636Z,1.03
2019-05-16T10:48:17.584Z,1.30
2019-05-16T10:53:50.315Z,1.20
2019-05-16T10:58:36.573Z,1.20
2019-05-16T11:03:35.365Z,1.23
2019-05-16T11:08:41.149Z,1.30
2019-05-16T11:13:47.235Z,1.20
2019-05-16T11:18:52.772Z,1.37
2019-05-16T11:23:58.657Z,1.10
2019-05-16T11:29:07.483Z,1.30
2019-05-16T11:34:12.663Z,1.30
2019-05-16T11:39:17.527Z,1.60
2019-05-16T11:44:21.941Z,1.50
2019-05-16T11:49:27.608Z,1.33
2019-05-16T11:54:32.984Z,1.30
2019-05-16T11:59:37.474Z,1.00
2019-05-16T12:04:42.669Z,1.23
2019-05-16T12:09:55.095Z,1.47
2019-05-16T12:14:55.996Z,1.23
2019-05-16T12:20:01.113Z,1.30
2019-05-16T12:25:08.182Z,1.33
2019-05-16T12:30:13.667Z,1.10
2019-05-16T12:35:17.826Z,1.10
2019-05-16T12:40:22.175Z,1.20
2019-05-16T12:45:27.571Z,1.10
2019-05-16T12:50:32.045Z,1.20
2019-05-16T12:55:36.863Z,1.03
2019-05-16T13:00:44.149Z,1.10
2019-05-16T13:05:48.447Z,1.23
2019-05-16T13:10:52.799Z,1.33
2019-05-16T13:15:57.312Z,1.40
2019-05-16T13:21:01.988Z,1.47
2019-05-16T13:26:07.300Z,1.90
2019-05-16T13:31:11.867Z,1.90
2019-05-16T13:36:17.579Z,1.87
2019-05-16T13:41:21.920Z,1.70
2019-05-16T13:46:27.576Z,1.73
2019-05-16T13:51:31.916Z,1.60
2019-05-16T13:56:37.712Z,1.50
2019-05-16T14:01:43.600Z,1.20
2019-05-16T14:06:48.313Z,2.33
2019-05-16T14:11:56.423Z,1.37
2019-05-16T14:17:02.767Z,1.40
2019-05-16T14:22:07.722Z,1.20
2019-05-16T14:27:14.196Z,1.10
2019-05-16T14:32:20.091Z,1.17
2019-05-16T14:37:26.883Z,1.23
2019-05-16T14:42:38.736Z,1.00
2019-05-16T14:47:38.372Z,0.90
2019-05-16T14:52:42.539Z,0.80
2019-05-16T14:57:47.319Z,0.93
2019-05-16T15:02:51.926Z,0.93
2019-05-16T15:07:56.908Z,0.80
2019-05-16T15:13:01.112Z,1.03
2019-05-16T15:18:08.229Z,1.10
2019-05-16T15:23:13.673Z,1.10
2019-05-16T15:28:18.360Z,1.20
2019-05-16T15:33:22.479Z,1.20
2019-05-16T15:38:27.295Z,1.10
2019-05-16T15:43:31.488Z,1.07
2019-05-16T15:48:37.226Z,1.03
2019-05-16T15:53:45.374Z,1.20
2019-05-16T15:58:49.711Z,1.20
2019-05-16T16:03:54.432Z,1.00
2019-05-16T16:09:03.394Z,1.00
2019-05-16T16:14:11.761Z,1.00
2019-05-16T16:19:18.741Z,1.00
2019-05-16T16:24:27.690Z,1.00
2019-05-16T16:29:33.171Z,0.73
2019-05-16T16:34:37.075Z,1.07
2019-05-16T16:39:47.117Z,1.33
2019-05-16T16:44:49.257Z,1.27
2019-05-16T16:49:59.004Z,1.30
2019-05-16T16:54:59.408Z,1.30
2019-05-16T17:00:07.580Z,1.50
2019-05-16T17:05:13.279Z,1.17
2019-05-16T17:10:18.014Z,1.10
2019-05-16T17:15:22.190Z,1.23
2019-05-16T17:20:26.368Z,1.20
2019-05-16T17:25:30.684Z,1.20
2019-05-16T17:30:36.812Z,1.47
2019-05-16T17:35:40.728Z,1.50
2019-05-16T17:40:46.479Z,1.17
2019-05-16T17:45:51.064Z,1.20
2019-05-16T17:50:57.000Z,1.40
2019-05-16T17:56:01.259Z,1.17
2019-05-16T18:01:08.465Z,1.10
2019-05-16T18:06:12.996Z,1.30
2019-05-16T18:11:17.768Z,1.10
2019-05-16T18:16:23.105Z,1.20
2019-05-16T18:21:27.479Z,1.43
2019-05-16T18:26:31.831Z,1.27
2019-05-16T18:31:37.239Z,1.40
2019-05-16T18:36:42.845Z,1.40
2019-05-16T18:41:49.210Z,1.03
2019-05-16T18:47:06.659Z,1.30
2019-05-16T18:52:00.711Z,1.10
2019-05-16T18:57:07.145Z,1.33
2019-05-16T19:02:13.148Z,1.30
2019-05-16T19:07:17.878Z,1.30
2019-05-16T19:12:22.047Z,1.30
2019-05-16T19:17:29.928Z,1.03
2019-05-16T19:22:37.122Z,0.97
2019-05-16T19:27:43.040Z,1.10
2019-05-16T19:32:49.531Z,1.20
2019-05-16T19:37:56.985Z,1.07
2019-05-16T19:43:08.827Z,1.30
2019-05-16T19:48:13.085Z,1.20
2019-05-16T19:53:17.177Z,1.27
2019-05-16T19:58:22.616Z,1.30
2019-05-16T20:03:28.666Z,1.53
2019-05-16T20:08:37.208Z,1.23
2019-05-16T20:13:42.861Z,1.17
2019-05-16T20:18:46.968Z,1.30
2019-05-16T20:23:51.080Z,1.30
2019-05-16T20:28:56.825Z,1.40
2019-05-16T20:34:02.417Z,1.40
2019-05-16T20:39:08.552Z,1.20
2019-05-16T20:44:13.075Z,1.33
2019-05-16T20:49:17.333Z,1.40
2019-05-16T20:54:21.472Z,1.40
2019-05-16T20:59:26.618Z,1.27
2019-05-16T21:04:31.056Z,1.40
2019-05-16T21:09:36.892Z,1.50
2019-05-16T21:14:41.521Z,1.40
2019-05-16T21:19:48.169Z,1.60
2019-05-16T21:24:52.038Z,1.30
2019-05-16T21:29:56.682Z,1.57
2019-05-16T21:35:01.687Z,1.57
2019-05-16T21:40:08.262Z,1.57
2019-05-16T21:45:14.703Z,1.53
2019-05-16T21:50:19.223Z,1.50
2019-05-16T21:55:23.492Z,1.80
2019-05-16T22:00:37.469Z,1.70
2019-05-16T22:05:43.423Z,1.50
2019-05-16T22:10:47.596Z,1.60
2019-05-16T22:15:52.117Z,1.53
2019-05-16T22:21:00.099Z,1.67
2019-05-16T22:26:04.259Z,1.50
2019-05-16T22:31:09.230Z,1.43
2019-05-16T22:36:14.095Z,1.40
2019-05-16T22:41:18.698Z,1.77
2019-05-16T22:46:22.796Z,1.73
2019-05-16T22:51:27.242Z,1.77
2019-05-16T22:56:31.860Z,1.60
2019-05-16T23:01:37.721Z,1.83
2019-05-16T23:06:43.519Z,1.73
2019-05-16T23:11:47.851Z,1.97
2019-05-16T23:16:52.166Z,1.80
2019-05-16T23:21:56.857Z,1.83
2019-05-16T23:27:03.813Z,2.00
2019-05-16T23:32:07.907Z,1.80
2019-05-16T23:37:12.015Z,2.17
2019-05-16T23:42:16.200Z,2.07
2019-05-16T23:47:20.390Z,2.50
2019-05-16T23:52:24.501Z,2.60
2019-05-16T23:57:28.623Z,2.40
